Time;durP1;ratioP1;P1;durP2;ratioP2;P2;SDS_P1;SDS_P2;PMS_P1;PMS_P2;Temp;Humidity;BMP_temperature;BMP_pressure;BME280_temperature;BME280_humidity;BME280_pressure;Samples;Min_cycle;Max_cycle;Signal;HPM_P1;HPM_P2
2023/04/10 00:01:16;;;;;;;1.83;1.73;;;;;;;2.74;100.00;100657.41;6184059;23;19997;-96
2023/04/10 00:03:42;;;;;;;0.55;0.55;;;;;;;2.70;100.00;100646.41;6155705;23;20014;-96
2023/04/10 00:14:08;;;;;;;4.75;1.45;;;;;;;2.87;100.00;100679.91;6179382;23;20044;-86
2023/04/10 00:16:33;;;;;;;1.60;0.93;;;;;;;2.99;100.00;100696.13;6128360;23;20017;-86
2023/04/10 00:18:59;;;;;;;0.63;0.52;;;;;;;2.99;100.00;100696.94;6180657;23;20454;-86
2023/04/10 00:21:25;;;;;;;0.55;0.55;;;;;;;2.82;100.00;100670.06;6127672;23;20052;-86
2023/04/10 00:23:50;;;;;;;0.17;0.17;;;;;;;2.86;100.00;100681.84;6179044;23;20020;-86
2023/04/10 00:26:16;;;;;;;0.82;0.82;;;;;;;2.95;100.00;100692.56;6129806;23;20044;-86
2023/04/10 00:28:42;;;;;;;0.90;0.90;;;;;;;2.94;100.00;100690.97;6152812;23;20021;-86
2023/04/10 00:31:08;;;;;;;2.60;1.83;;;;;;;2.86;100.00;100675.56;6154370;23;20020;-86
2023/04/10 00:33:33;;;;;;;0.70;0.70;;;;;;;2.79;100.00;100671.56;6128090;23;20052;-86
2023/04/10 00:35:59;;;;;;;0.80;0.80;;;;;;;2.91;100.00;100678.00;6104563;23;20048;-86
2023/04/10 00:38:25;;;;;;;1.65;1.15;;;;;;;2.88;100.00;100689.69;6127647;23;20383;-86
2023/04/10 00:54:09;;;;;;;1.75;1.65;;;;;;;2.73;100.00;100683.22;6180869;23;20175;-85
2023/04/10 00:56:35;;;;;;;2.72;2.05;;;;;;;2.71;100.00;100678.09;6106047;23;20025;-85
2023/04/10 00:59:01;;;;;;;0.88;0.88;;;;;;;2.57;100.00;100650.50;6105335;23;20103;-85
2023/04/10 01:01:27;;;;;;;1.25;1.15;;;;;;;2.72;100.00;100676.94;6132264;23;20088;-85
2023/04/10 01:03:53;;;;;;;0.57;0.57;;;;;;;2.68;100.00;100670.63;6184444;23;20013;-86
2023/04/10 01:06:49;;;;;;;1.75;1.65;;;;;;;2.72;100.00;100676.16;6158421;23;20012;-85
2023/04/10 01:09:42;;;;;;;2.40;1.10;;;;;;;2.70;100.00;100681.22;6169016;23;20005;-94
2023/04/10 01:12:11;;;;;;;0.98;0.98;;;;;;;2.69;100.00;100676.88;6101964;23;20037;-96
2023/04/10 01:14:48;;;;;;;1.45;1.23;;;;;;;2.66;100.00;100675.69;6125036;23;20014;-96
2023/04/10 01:17:39;;;;;;;0.63;0.63;;;;;;;2.68;100.00;100680.78;6101910;23;20025;-95
2023/04/10 01:20:09;;;;;;;1.42;1.33;;;;;;;2.66;100.00;100678.44;6102458;23;20052;-94
2023/04/10 01:22:40;;;;;;;1.35;1.25;;;;;;;2.64;100.00;100680.72;6102860;23;20446;-96
2023/04/10 01:25:38;;;;;;;2.33;2.10;;;;;;;2.66;100.00;100672.94;6103267;23;20017;-95
2023/04/10 01:28:20;;;;;;;0.50;0.50;;;;;;;2.63;100.00;100670.16;6098070;23;20024;-95
2023/04/10 01:30:49;;;;;;;0.80;0.80;;;;;;;2.64;100.00;100675.25;6125689;23;20069;-94
2023/04/10 01:33:17;;;;;;;1.25;1.25;;;;;;;2.65;100.00;100665.88;6080042;23;20323;-94
2023/04/10 01:35:48;;;;;;;1.55;1.48;;;;;;;2.66;100.00;100662.00;6103391;23;20450;-94
2023/04/10 01:38:17;;;;;;;0.47;0.47;;;;;;;2.64;100.00;100652.53;6102415;23;20434;-94
2023/04/10 01:40:48;;;;;;;0.93;0.93;;;;;;;2.63;100.00;100662.72;6079114;23;20072;-95
2023/04/10 01:43:16;;;;;;;;;;;;;;;2.62;100.00;100663.88;6104595;23;20018;-94
2023/04/10 01:45:47;;;;;;;0.20;0.20;;;;;;;2.59;100.00;100661.09;6104751;23;19935;-95
2023/04/10 01:48:15;;;;;;;1.42;1.33;;;;;;;2.51;100.00;100660.16;6103483;23;20014;-95
2023/04/10 01:50:41;;;;;;;0.95;0.95;;;;;;;2.58;100.00;100663.03;6079468;23;20037;-93
2023/04/10 01:53:07;;;;;;;1.25;0.95;;;;;;;2.49;100.00;100656.22;6102517;23;20020;-95
2023/04/10 01:55:33;;;;;;;0.47;0.47;;;;;;;2.39;100.00;100627.50;6079522;23;20016;-95
2023/04/10 01:58:04;;;;;;;5.25;2.63;;;;;;;2.46;100.00;100652.28;6103260;23;20021;-94
2023/04/10 02:00:42;;;;;;;0.80;0.80;;;;;;;2.57;100.00;100664.19;6127137;23;20017;-96
2023/04/10 02:03:09;;;;;;;1.20;1.20;;;;;;;2.57;100.00;100675.16;6153190;23;20349;-95
2023/04/10 02:05:50;;;;;;;0.25;0.25;;;;;;;2.56;100.00;100672.75;6108044;23;20016;-95
2023/04/10 02:08:30;;;;;;;1.10;1.10;;;;;;;2.52;100.00;100680.94;6156333;23;20029;-94
2023/04/10 02:11:33;;;;;;;1.40;1.30;;;;;;;2.51;100.00;100667.63;6108831;23;20027;-95
2023/04/10 02:14:01;;;;;;;1.05;0.80;;;;;;;2.43;100.00;100660.44;6156335;23;20060;-95
2023/04/10 02:16:28;;;;;;;0.90;0.65;;;;;;;2.49;100.00;100678.94;6132306;23;20020;-95
2023/04/10 02:18:54;;;;;;;0.80;0.80;;;;;;;2.49;100.00;100661.72;6107753;23;20008;-94
2023/04/10 02:21:20;;;;;;;3.33;1.40;;;;;;;2.47;100.00;100664.81;6107997;23;20009;-95
2023/04/10 02:23:46;;;;;;;2.58;1.85;;;;;;;2.46;100.00;100660.50;6131540;23;20053;-95
2023/04/10 02:26:14;;;;;;;5.60;1.50;;;;;;;2.50;100.00;100666.81;6107832;23;20020;-94
2023/04/10 02:28:40;;;;;;;1.50;1.40;;;;;;;2.39;100.00;100654.91;6130450;23;20008;-93
2023/04/10 02:31:06;;;;;;;0.65;0.65;;;;;;;2.42;100.00;100650.66;6108495;23;20017;-95
2023/04/10 02:33:32;;;;;;;1.42;1.33;;;;;;;2.46;100.00;100662.44;6107361;23;20009;-94
2023/04/10 02:35:59;;;;;;;1.20;1.17;;;;;;;2.38;100.00;100650.59;6131665;23;20025;-94
2023/04/10 02:38:25;;;;;;;0.50;0.50;;;;;;;2.43;100.00;100663.94;6131635;23;20071;-94
2023/04/10 02:40:51;;;;;;;7.25;2.42;;;;;;;2.40;100.00;100661.97;6132526;23;20017;-94
2023/04/10 02:43:17;;;;;;;0.80;0.50;;;;;;;2.40;100.00;100659.22;6132282;23;20485;-96
2023/04/10 02:45:45;;;;;;;0.55;0.55;;;;;;;2.33;100.00;100657.16;6132890;23;20028;-95
2023/04/10 02:48:15;;;;;;;0.00;0.00;;;;;;;2.37;100.00;100654.47;6132664;23;20008;-94
2023/04/10 02:50:44;;;;;;;0.80;0.80;;;;;;;2.36;100.00;100658.38;6106374;23;20024;-94
2023/04/10 02:53:15;;;;;;;1.70;1.60;;;;;;;2.27;100.00;100644.13;6132221;23;20096;-94
2023/04/10 02:55:40;;;;;;;1.33;1.23;;;;;;;2.30;100.00;100657.91;6106782;23;20075;-95
2023/04/10 02:58:06;;;;;;;0.40;0.40;;;;;;;2.33;100.00;100653.63;6131318;23;20017;-95
2023/04/10 03:00:32;;;;;;;1.20;1.15;;;;;;;2.31;100.00;100644.97;6155043;23;20462;-94
2023/04/10 03:03:11;;;;;;;1.90;1.80;;;;;;;2.29;100.00;100648.09;6133533;23;20029;-94
2023/04/10 03:05:45;;;;;;;1.02;1.02;;;;;;;2.30;100.00;100648.91;6134757;23;20016;-95
2023/04/10 03:08:16;;;;;;;1.10;1.00;;;;;;;2.32;100.00;100643.84;6107219;23;20454;-95
2023/04/10 03:10:47;;;;;;;0.40;0.40;;;;;;;2.29;100.00;100648.09;6102365;23;20021;-95
2023/04/10 03:13:14;;;;;;;0.20;0.20;;;;;;;2.27;100.00;100639.47;6078406;23;20013;-95
2023/04/10 03:15:39;;;;;;;1.23;1.17;;;;;;;2.29;100.00;100650.84;6102265;23;20001;-93
2023/04/10 03:18:05;;;;;;;0.30;0.30;;;;;;;2.08;100.00;100611.38;6102508;23;20028;-96
2023/04/10 03:20:32;;;;;;;3.00;1.17;;;;;;;2.23;100.00;100649.56;6078412;23;20068;-94
2023/04/10 03:22:58;;;;;;;1.50;1.17;;;;;;;2.22;100.00;100644.47;6077843;23;20035;-94
2023/04/10 03:25:26;;;;;;;2.42;1.15;;;;;;;2.20;100.00;100649.50;6103418;23;20013;-94
2023/04/10 03:27:52;;;;;;;0.60;0.60;;;;;;;2.17;100.00;100647.50;6077957;23;20014;-95
2023/04/10 03:30:18;;;;;;;1.02;1.02;;;;;;;2.16;100.00;100643.97;6101054;23;20020;-93
2023/04/10 03:32:46;;;;;;;0.88;0.80;;;;;;;2.19;100.00;100637.75;6078429;23;20068;-94
2023/04/10 03:35:11;;;;;;;3.45;1.13;;;;;;;2.20;100.00;100638.56;6102192;23;20096;-94
2023/04/10 03:37:38;;;;;;;1.15;1.05;;;;;;;2.16;100.00;100633.03;6077087;23;20028;-94
2023/04/10 03:40:07;;;;;;;0.35;0.35;;;;;;;2.24;100.00;100648.41;6077018;23;20092;-94
2023/04/10 03:42:33;;;;;;;0.93;0.93;;;;;;;2.20;100.00;100633.88;6101483;23;20010;-94
2023/04/10 03:45:03;;;;;;;0.70;0.70;;;;;;;2.08;100.00;100616.84;6101068;23;20023;-94
2023/04/10 03:47:30;;;;;;;0.70;0.68;;;;;;;2.26;100.00;100637.91;6104146;23;20009;-94
2023/04/10 03:50:00;;;;;;;3.83;1.55;;;;;;;2.19;100.00;100623.28;6104078;23;20013;-94
2023/04/10 03:52:30;;;;;;;1.85;1.75;;;;;;;2.31;100.00;100634.84;6103545;23;20093;-95
2023/04/10 03:54:55;;;;;;;4.65;2.08;;;;;;;2.31;100.00;100634.03;6104115;23;20040;-95
2023/04/10 03:57:25;;;;;;;1.10;1.08;;;;;;;2.29;100.00;100644.56;6103317;23;20021;-94
2023/04/10 03:59:55;;;;;;;1.83;1.48;;;;;;;2.31;100.00;100642.25;6082131;23;20477;-95
2023/04/10 04:02:21;;;;;;;1.10;1.10;;;;;;;2.27;100.00;100644.13;6079516;23;20152;-96
2023/04/10 04:04:47;;;;;;;1.33;1.30;;;;;;;2.29;100.00;100652.78;6080440;23;20053;-94
2023/04/10 04:07:19;;;;;;;0.10;0.10;;;;;;;2.02;100.00;100616.38;6081420;23;20006;-94
2023/04/10 04:10:07;;;;;;;1.85;1.30;;;;;;;2.29;100.00;100652.78;6122878;23;20065;-96
2023/04/10 04:12:41;;;;;;;0.77;0.52;;;;;;;2.29;100.00;100653.59;6129019;23;20024;-94
2023/04/10 04:15:26;;;;;;;0.75;0.75;;;;;;;2.35;100.00;100643.88;6162196;23;20498;-94
2023/04/10 04:18:04;;;;;;;1.27;1.17;;;;;;;2.32;100.00;100636.41;6113983;23;20020;-95
2023/04/10 04:20:39;;;;;;;1.52;1.45;;;;;;;2.25;100.00;100639.03;6112331;23;20024;-94
2023/04/10 04:23:34;;;;;;;0.57;0.57;;;;;;;2.38;100.00;100660.75;6059838;23;20483;-95
2023/04/10 04:26:00;;;;;;;0.65;0.65;;;;;;;2.39;100.00;100652.16;6134193;23;20020;-95
2023/04/10 04:28:44;;;;;;;0.17;0.17;;;;;;;2.36;100.00;100647.41;6161591;23;20585;-95
2023/04/10 04:31:31;;;;;;;1.40;1.30;;;;;;;2.38;100.00;100653.34;6141257;23;20024;-94
2023/04/10 04:34:32;;;;;;;0.60;0.60;;;;;;;2.42;100.00;100645.97;6154162;23;20647;-94
2023/04/10 04:37:17;;;;;;;1.60;1.50;;;;;;;2.46;100.00;100652.28;6139988;23;20013;-95
2023/04/10 04:40:21;;;;;;;1.02;0.90;;;;;;;2.47;100.00;100648.38;6172950;23;20004;-95
2023/04/10 04:43:02;;;;;;;0.95;0.95;;;;;;;2.50;100.00;100646.88;6161756;23;20017;-95
2023/04/10 04:45:57;;;;;;;1.00;1.00;;;;;;;2.61;100.00;100659.56;6121531;23;20025;-94
2023/04/10 04:48:45;;;;;;;2.05;1.85;;;;;;;2.63;100.00;100662.72;6132951;23;20097;-95
2023/04/10 04:51:21;;;;;;;0.70;0.70;;;;;;;2.73;100.00;100669.53;6114915;23;20029;-94
2023/04/10 04:54:21;;;;;;;1.20;1.17;;;;;;;2.76;100.00;100668.78;6147401;23;20024;-95
2023/04/10 11:34:59;;;;;;;2.50;2.28;;;;;;;16.43;54.81;100572.66;6151021;23;20503;-88
2023/04/10 11:37:26;;;;;;;1.55;1.15;;;;;;;15.97;53.45;100557.00;6076544;23;20013;-92
2023/04/10 11:40:03;;;;;;;1.70;0.85;;;;;;;15.97;55.07;100540.22;6099447;23;20002;-93
2023/04/10 11:42:28;;;;;;;1.65;1.55;;;;;;;16.27;54.63;100537.31;6125495;23;20043;-93
2023/04/10 11:44:54;;;;;;;1.08;1.02;;;;;;;16.76;56.09;100520.44;6074471;23;20021;-92
2023/04/10 11:47:20;;;;;;;2.72;1.98;;;;;;;16.66;55.71;100537.72;6123505;23;20322;-91
2023/04/10 11:49:54;;;;;;;4.68;3.17;;;;;;;16.57;53.73;100540.50;6123981;23;20033;-91
2023/04/10 11:52:26;;;;;;;1.15;1.08;;;;;;;16.07;52.70;100533.38;6098939;23;20022;-92
2023/04/10 11:54:51;;;;;;;2.63;1.83;;;;;;;16.05;53.43;100538.69;6123202;23;20014;-92
2023/04/10 11:57:17;;;;;;;4.88;2.30;;;;;;;16.53;56.27;100525.84;6098460;23;20028;-93
2023/04/10 11:59:48;;;;;;;3.35;1.80;;;;;;;16.76;54.61;100511.25;6075206;23;20332;-91
2023/04/10 12:02:14;;;;;;;1.30;1.17;;;;;;;16.27;51.96;100512.13;6112858;23;20096;-92
2023/04/10 12:04:40;;;;;;;1.25;1.15;;;;;;;15.79;52.79;100532.53;6071544;23;20081;-92
2023/04/10 12:07:07;;;;;;;2.22;1.85;;;;;;;15.20;53.67;100512.06;6070422;23;20022;-92
2023/04/10 12:09:32;;;;;;;2.10;1.67;;;;;;;15.49;55.77;100528.47;6049632;23;20069;-91
2023/04/10 12:12:05;;;;;;;3.47;3.05;;;;;;;16.27;60.32;100528.16;6073100;23;20026;-91
2023/04/10 12:14:38;;;;;;;1.88;0.90;;;;;;;16.83;51.18;100524.16;6070905;23;20040;-91
2023/04/10 12:17:06;;;;;;;3.03;2.17;;;;;;;16.83;50.04;100521.34;6096511;23;20042;-92
2023/04/10 12:19:32;;;;;;;2.50;1.75;;;;;;;17.00;50.87;100502.97;6071223;23;20022;-92
2023/04/10 12:21:59;;;;;;;1.15;1.08;;;;;;;17.17;49.22;100512.59;6096090;23;20324;-92
2023/04/10 12:24:43;;;;;;;0.30;0.30;;;;;;;17.12;46.48;100521.63;6046316;23;20421;-91
2023/04/10 12:27:16;;;;;;;1.00;0.98;;;;;;;16.99;41.67;100504.19;6095097;23;20459;-92
2023/04/10 12:29:44;;;;;;;1.58;1.35;;;;;;;16.47;43.82;100500.47;6120776;23;20052;-90
2023/04/10 12:32:09;;;;;;;1.67;1.58;;;;;;;16.51;46.01;100505.91;6103580;23;20021;-92
2023/04/10 12:34:35;;;;;;;2.60;2.05;;;;;;;16.54;48.43;100488.97;6126972;23;20347;-91
2023/04/10 12:37:01;;;;;;;2.33;1.65;;;;;;;16.87;47.38;100493.94;6164882;23;20021;-91
2023/04/10 12:39:28;;;;;;;0.52;0.50;;;;;;;17.11;46.58;100480.81;6137819;23;20017;-93
2023/04/10 12:42:19;;;;;;;1.77;1.50;;;;;;;17.02;43.87;100480.84;6137730;23;20021;-92
2023/04/10 12:44:55;;;;;;;2.17;0.93;;;;;;;16.93;43.22;100480.88;6138037;23;20013;-93
2023/04/10 12:47:22;;;;;;;2.08;1.38;;;;;;;17.12;42.63;100482.38;6159674;23;20594;-91
2023/04/10 12:50:11;;;;;;;1.88;1.77;;;;;;;17.18;43.64;100474.91;6156901;23;20020;-92
2023/04/10 12:52:39;;;;;;;1.25;1.17;;;;;;;17.53;42.19;100459.19;6152891;23;20013;-91
2023/04/10 12:55:22;;;;;;;1.60;1.50;;;;;;;17.85;42.53;100454.03;6180372;23;20025;-92
2023/04/10 12:57:50;;;;;;;1.75;1.52;;;;;;;17.86;40.59;100455.59;6129761;23;20534;-92
2023/04/10 13:00:18;;;;;;;2.20;1.85;;;;;;;17.91;40.13;100469.75;6105232;23;20092;-92
2023/04/10 13:02:44;;;;;;;2.22;2.03;;;;;;;17.87;40.40;100459.97;6153434;23;20017;-92
2023/04/10 13:05:10;;;;;;;1.08;0.93;;;;;;;17.95;39.28;100461.16;6180124;23;20039;-93
2023/04/10 13:07:37;;;;;;;1.70;1.60;;;;;;;18.06;40.61;100452.97;6129432;23;20052;-92
2023/04/10 13:10:04;;;;;;;2.42;1.02;;;;;;;18.05;38.16;100448.59;6130431;23;20530;-93
2023/04/10 13:12:30;;;;;;;1.80;1.60;;;;;;;17.98;38.00;100440.56;6153228;23;20515;-92
2023/04/10 13:14:56;;;;;;;1.55;1.45;;;;;;;18.15;39.36;100444.50;6153893;23;20009;-93
2023/04/10 13:17:22;;;;;;;1.55;1.45;;;;;;;18.28;36.91;100430.97;6127916;23;20135;-91
2023/04/10 13:19:48;;;;;;;2.60;1.73;;;;;;;18.35;36.90;100436.22;6128644;23;20021;-92
2023/04/10 13:22:14;;;;;;;1.20;0.88;;;;;;;18.46;37.02;100453.28;6152332;23;20084;-91
2023/04/10 13:24:41;;;;;;;1.50;0.98;;;;;;;18.13;35.22;100447.00;6152393;23;20008;-91
2023/04/10 13:27:08;;;;;;;1.20;1.13;;;;;;;18.06;35.53;100436.13;6153392;23;20440;-92
2023/04/10 13:29:34;;;;;;;3.55;2.15;;;;;;;17.87;36.00;100437.53;6128968;23;20013;-92
2023/04/10 13:32:02;;;;;;;1.88;1.48;;;;;;;18.02;36.30;100427.13;6154365;23;20068;-92
2023/04/10 13:34:28;;;;;;;0.63;0.63;;;;;;;18.03;36.96;100425.88;6151902;23;20025;-93
2023/04/10 13:36:54;;;;;;;1.40;0.93;;;;;;;18.01;37.74;100434.75;6152108;23;20824;-93
2023/04/10 13:39:22;;;;;;;2.83;2.22;;;;;;;17.77;39.32;100402.34;6177738;23;20100;-88
2023/04/10 13:41:48;;;;;;;1.50;0.68;;;;;;;17.99;38.99;100425.28;6152520;23;20097;-87
2023/04/10 13:44:16;;;;;;;2.20;1.23;;;;;;;17.84;35.06;100416.78;6126075;23;20053;-88
2023/04/10 13:46:42;;;;;;;2.10;1.50;;;;;;;18.08;35.75;100437.19;6178040;23;20067;-88
2023/04/10 13:49:07;;;;;;;0.32;0.32;;;;;;;18.13;35.33;100427.34;6151462;23;20021;-88
2023/04/10 13:51:33;;;;;;;1.38;0.63;;;;;;;17.98;36.48;100395.66;6126091;23;20443;-87
2023/04/10 13:53:59;;;;;;;3.95;0.63;;;;;;;18.16;34.79;100426.38;6151371;23;20343;-88
2023/04/10 13:56:24;;;;;;;2.08;1.45;;;;;;;18.26;33.94;100405.41;6103837;23;20032;-88
2023/04/10 13:58:50;;;;;;;1.48;1.35;;;;;;;18.18;33.75;100402.19;6127985;23;20028;-89
2023/04/10 14:01:15;;;;;;;0.75;0.65;;;;;;;18.37;34.13;100377.53;6151884;23;20092;-89
2023/04/10 14:03:41;;;;;;;0.57;0.57;;;;;;;18.53;34.21;100385.50;6152911;23;20017;-89
2023/04/10 14:06:06;;;;;;;1.75;1.13;;;;;;;18.55;33.66;100385.81;6151327;23;20408;-88
2023/04/10 14:08:32;;;;;;;0.32;0.32;;;;;;;18.23;35.15;100395.13;6127453;23;20351;-89
2023/04/10 14:10:57;;;;;;;0.82;0.75;;;;;;;18.03;35.78;100403.41;6128126;23;20388;-89
2023/04/10 14:13:23;;;;;;;0.60;0.60;;;;;;;17.72;35.27;100400.97;6127514;23;20005;-88
2023/04/10 14:15:50;;;;;;;1.70;0.65;;;;;;;17.50;35.67;100390.03;6151873;23;20023;-88
2023/04/10 14:18:17;;;;;;;1.27;0.75;;;;;;;17.64;36.44;100392.13;6151161;23;20017;-88
2023/04/10 14:20:43;;;;;;;2.30;1.58;;;;;;;17.95;36.33;100397.41;6126656;23;20498;-88
2023/04/10 14:23:11;;;;;;;2.35;1.13;;;;;;;18.09;35.38;100402.25;6152100;23;20080;-89
2023/04/10 14:25:36;;;;;;;1.42;1.02;;;;;;;18.09;36.04;100387.44;6179044;23;20017;-89
2023/04/10 14:28:02;;;;;;;2.83;2.15;;;;;;;18.00;34.79;100381.91;6127957;23;20009;-89
2023/04/10 14:30:29;;;;;;;0.68;0.55;;;;;;;17.67;34.77;100385.56;6126945;23;20107;-89
2023/04/10 14:32:55;;;;;;;1.10;1.00;;;;;;;17.45;35.51;100393.47;6128246;23;20040;-88
2023/04/10 14:35:21;;;;;;;2.15;0.70;;;;;;;16.63;35.98;100346.16;6152006;23;20477;-89
2023/04/10 14:37:47;;;;;;;2.22;1.50;;;;;;;16.63;36.84;100390.19;6126696;23;20454;-88
2023/04/10 14:40:12;;;;;;;0.70;0.70;;;;;;;16.09;37.13;100368.63;6147478;23;20088;-88
2023/04/10 14:42:38;;;;;;;0.70;0.70;;;;;;;15.70;39.00;100367.50;6126439;23;20023;-89
2023/04/10 14:45:05;;;;;;;0.55;0.52;;;;;;;15.92;39.27;100370.16;6128315;23;20005;-88
2023/04/10 14:47:31;;;;;;;1.00;1.00;;;;;;;16.16;37.99;100369.06;6127582;23;20016;-89
2023/04/10 14:49:56;;;;;;;1.27;0.95;;;;;;;16.50;35.97;100375.56;6152691;23;20159;-89
2023/04/10 14:52:22;;;;;;;0.77;0.77;;;;;;;16.50;36.27;100370.72;6125932;23;20052;-88
2023/04/10 14:54:48;;;;;;;0.57;0.57;;;;;;;16.46;36.93;100363.75;6128012;23;20032;-89
2023/04/10 14:57:14;;;;;;;3.58;2.15;;;;;;;16.51;36.64;100369.50;6127403;23;20027;-88
2023/04/10 14:59:40;;;;;;;0.70;0.68;;;;;;;16.52;37.56;100317.84;6152272;23;20095;-89
2023/04/10 15:02:05;;;;;;;2.20;1.80;;;;;;;16.76;37.90;100337.56;6178688;23;20035;-89
2023/04/10 15:04:31;;;;;;;0.70;0.70;;;;;;;16.90;37.08;100330.50;6126537;23;20395;-89
2023/04/10 15:06:56;;;;;;;0.85;0.85;;;;;;;17.09;37.20;100320.75;6151790;23;20013;-89
2023/04/10 15:09:22;;;;;;;1.25;1.15;;;;;;;17.48;37.10;100353.25;6151753;23;20025;-89
2023/04/10 15:11:47;;;;;;;1.48;1.35;;;;;;;17.52;37.40;100341.84;6127855;23;20020;-88
2023/04/10 15:14:13;;;;;;;3.83;1.85;;;;;;;17.45;39.16;100347.81;6102100;23;20036;-88
2023/04/10 15:16:38;;;;;;;1.65;1.55;;;;;;;17.15;38.21;100330.84;6126812;23;20017;-89
2023/04/10 15:19:04;;;;;;;0.93;0.90;;;;;;;16.61;37.71;100347.88;6152410;23;20463;-88
2023/04/10 15:21:30;;;;;;;1.55;0.88;;;;;;;16.51;39.34;100344.28;6102237;23;20526;-88
2023/04/10 15:23:55;;;;;;;1.08;1.00;;;;;;;16.40;40.18;100327.22;6127420;23;20510;-89
2023/04/10 15:26:21;;;;;;;1.45;1.35;;;;;;;16.28;40.33;100308.56;6151072;23;20431;-88
2023/04/10 15:28:46;;;;;;;0.75;0.75;;;;;;;16.23;40.39;100303.59;6127158;23;20063;-88
2023/04/10 15:31:12;;;;;;;1.65;1.08;;;;;;;16.40;40.60;100332.81;6126209;23;20021;-88
2023/04/10 15:33:38;;;;;;;1.02;1.00;;;;;;;16.37;41.43;100322.56;6127255;23;20017;-87
2023/04/10 15:36:06;;;;;;;1.38;1.27;;;;;;;16.39;39.70;100336.84;6126186;23;20029;-88
2023/04/10 15:38:35;;;;;;;0.82;0.80;;;;;;;16.26;40.52;100336.25;6128087;23;20017;-88
2023/04/10 15:41:01;;;;;;;1.80;1.45;;;;;;;15.79;40.43;100289.97;6127455;23;20025;-87
2023/04/10 15:43:26;;;;;;;0.65;0.65;;;;;;;15.97;40.38;100325.56;6153232;23;20072;-88
2023/04/10 15:45:52;;;;;;;1.10;0.85;;;;;;;16.08;40.53;100328.66;6153509;23;20013;-88
2023/04/10 15:48:17;;;;;;;1.85;1.40;;;;;;;15.86;39.84;100317.63;6128440;23;20444;-88
2023/04/10 15:50:43;;;;;;;2.83;0.85;;;;;;;15.76;39.50;100309.72;6152497;23;20292;-87
2023/04/10 15:53:09;;;;;;;1.73;0.75;;;;;;;15.80;39.20;100319.50;6129233;23;20423;-88
2023/04/10 15:55:41;;;;;;;1.98;1.45;;;;;;;15.79;39.33;100306.75;6129245;23;20041;-88
2023/04/10 15:58:06;;;;;;;0.65;0.65;;;;;;;15.46;39.71;100286.19;6127522;23;20076;-88
2023/04/10 16:00:32;;;;;;;0.77;0.77;;;;;;;15.41;39.98;100286.81;6153842;23;20436;-87
2023/04/10 16:02:57;;;;;;;0.98;0.98;;;;;;;15.56;39.73;100304.56;6152683;23;20017;-88
2023/04/10 16:05:23;;;;;;;0.77;0.77;;;;;;;15.48;40.86;100280.94;6151076;23;20001;-87
2023/04/10 16:07:48;;;;;;;1.60;0.73;;;;;;;15.45;41.50;100298.63;6104734;23;20025;-87
2023/04/10 16:10:14;;;;;;;2.80;1.65;;;;;;;15.37;41.31;100297.34;6104436;23;20483;-87
2023/04/10 16:12:40;;;;;;;2.90;1.35;;;;;;;15.27;42.41;100316.16;6127871;23;20020;-88
2023/04/10 16:15:09;;;;;;;1.05;0.70;;;;;;;15.20;42.73;100312.88;6128299;23;20019;-88
2023/04/10 16:17:35;;;;;;;1.20;1.08;;;;;;;14.99;43.28;100299.75;6154478;23;20012;-88
2023/04/10 16:20:06;;;;;;;1.60;1.45;;;;;;;15.08;43.63;100302.59;6152684;23;20068;-87
2023/04/10 16:22:32;;;;;;;1.85;1.52;;;;;;;14.98;44.12;100306.59;6128818;23;20757;-87
2023/04/10 16:24:59;;;;;;;1.15;1.10;;;;;;;14.87;43.64;100302.22;6153201;23;20032;-88
2023/04/10 16:27:24;;;;;;;0.60;0.47;;;;;;;14.79;44.04;100295.34;6151921;23;20055;-87
2023/04/10 16:29:50;;;;;;;0.93;0.85;;;;;;;14.65;43.85;100278.38;6153170;23;20444;-88
2023/04/10 16:32:20;;;;;;;0.65;0.45;;;;;;;14.53;44.86;100291.19;6128294;23;20436;-88
2023/04/10 16:34:45;;;;;;;0.40;0.40;;;;;;;14.31;45.16;100268.91;6152510;23;20025;-87
2023/04/10 16:37:11;;;;;;;2.65;1.08;;;;;;;14.08;45.37;100271.38;6149442;23;20080;-86
2023/04/10 16:39:37;;;;;;;6.47;1.58;;;;;;;13.96;46.20;100275.78;6106637;23;20012;-86
2023/04/10 16:42:03;;;;;;;1.10;1.08;;;;;;;13.88;45.17;100286.44;6154140;23;20017;-87
2023/04/10 16:44:30;;;;;;;2.33;0.95;;;;;;;13.67;45.11;100298.34;6130924;23;20009;-88
2023/04/10 16:46:56;;;;;;;1.48;1.00;;;;;;;13.54;45.42;100278.13;6152800;23;20021;-86
2023/04/10 16:49:21;;;;;;;1.40;1.00;;;;;;;13.54;46.03;100292.06;6155443;23;20313;-86
2023/04/10 16:51:47;;;;;;;1.35;1.20;;;;;;;13.42;46.38;100288.06;6130479;23;20068;-87
2023/04/10 16:54:13;;;;;;;2.47;1.15;;;;;;;13.35;46.93;100287.50;6155265;23;20013;-86
2023/04/10 16:56:39;;;;;;;1.17;1.13;;;;;;;13.07;47.22;100247.44;6155672;23;20063;-90
2023/04/10 16:59:04;;;;;;;2.70;1.25;;;;;;;13.03;47.67;100257.91;6130765;23;20051;-90
2023/04/10 17:01:30;;;;;;;1.13;0.77;;;;;;;13.14;48.19;100277.13;6181937;23;20012;-91
2023/04/10 17:03:55;;;;;;;0.85;0.85;;;;;;;12.99;48.13;100269.19;6154828;23;20343;-90
2023/04/10 17:06:21;;;;;;;1.55;1.17;;;;;;;12.80;48.51;100263.84;6155234;23;20005;-92
2023/04/10 17:08:46;;;;;;;1.27;1.17;;;;;;;12.76;48.97;100252.84;6156287;23;20009;-91
2023/04/10 17:11:12;;;;;;;0.40;0.40;;;;;;;12.91;49.47;100276.22;6181246;23;20510;-91
2023/04/10 17:13:39;;;;;;;1.05;1.02;;;;;;;12.69;50.03;100253.06;6132046;23;20001;-92
2023/04/10 17:16:05;;;;;;;2.05;1.27;;;;;;;12.74;50.95;100274.75;6131072;23;20100;-93
2023/04/10 17:18:31;;;;;;;1.85;1.67;;;;;;;12.64;52.17;100284.25;6157466;23;20446;-92
2023/04/10 17:20:56;;;;;;;2.65;2.45;;;;;;;12.36;52.92;100246.16;6181773;23;20009;-91
2023/04/10 17:23:22;;;;;;;3.88;2.63;;;;;;;12.37;53.97;100259.66;6131151;23;20080;-91
2023/04/10 17:25:48;;;;;;;3.22;3.00;;;;;;;12.11;55.37;100219.09;6181973;23;20016;-88
2023/04/10 17:28:13;;;;;;;2.08;1.92;;;;;;;12.15;55.98;100237.25;6154947;23;20486;-88
2023/04/10 17:30:39;;;;;;;1.55;1.45;;;;;;;12.32;56.79;100281.66;6130832;23;20000;-88
2023/04/10 17:33:04;;;;;;;4.80;2.33;;;;;;;12.14;57.81;100274.63;6101458;23;20021;-88
2023/04/10 17:35:30;;;;;;;2.25;1.58;;;;;;;12.04;58.83;100267.38;6125879;23;20017;-87
2023/04/10 17:37:56;;;;;;;0.93;0.88;;;;;;;11.94;60.96;100262.88;6101498;23;20080;-88
2023/04/10 17:40:21;;;;;;;1.67;1.58;;;;;;;11.65;61.67;100234.31;6125680;23;20171;-88
2023/04/10 17:42:47;;;;;;;2.08;1.88;;;;;;;11.67;62.12;100256.88;6126243;23;20037;-92
2023/04/10 17:45:13;;;;;;;1.60;1.30;;;;;;;11.74;63.03;100276.16;6125830;23;20013;-92
2023/04/10 17:47:39;;;;;;;2.38;1.75;;;;;;;11.63;63.99;100262.53;6150426;23;20411;-92
2023/04/10 17:50:05;;;;;;;3.80;3.20;;;;;;;11.59;64.72;100272.19;6151133;23;20009;-92
2023/04/10 17:52:30;;;;;;;3.33;1.73;;;;;;;11.50;66.18;100269.25;6101158;23;20013;-92
2023/04/10 17:54:56;;;;;;;1.65;1.42;;;;;;;11.52;66.57;100277.94;6101494;23;20440;-91
2023/04/10 17:57:22;;;;;;;1.67;1.58;;;;;;;11.36;67.86;100266.88;6125112;23;20021;-92
2023/04/10 17:59:47;;;;;;;2.60;2.40;;;;;;;11.26;69.46;100265.91;6126859;23;20505;-92
2023/04/10 18:02:13;;;;;;;2.30;2.20;;;;;;;11.27;69.70;100266.69;6125416;23;20017;-92
2023/04/10 18:04:38;;;;;;;3.47;2.00;;;;;;;11.22;70.77;100271.56;6100867;23;20026;-92
2023/04/10 18:07:04;;;;;;;1.98;1.63;;;;;;;11.09;71.54;100261.59;6101105;23;20017;-92
2023/04/10 18:09:30;;;;;;;2.90;2.47;;;;;;;11.14;72.26;100274.94;6152471;23;20048;-92
2023/04/10 18:11:56;;;;;;;3.67;2.17;;;;;;;11.04;73.99;100267.69;6125359;23;20018;-93
2023/04/10 18:14:21;;;;;;;1.48;1.38;;;;;;;10.88;75.27;100257.34;6126360;23;20018;-92
2023/04/10 18:16:47;;;;;;;1.20;1.10;;;;;;;10.84;75.76;100259.41;6125864;23;20013;-93
2023/04/10 18:19:13;;;;;;;2.53;2.33;;;;;;;10.76;76.59;100260.81;6151535;23;20156;-93
2023/04/10 18:21:41;;;;;;;2.85;2.45;;;;;;;10.74;76.07;100257.69;6142315;23;20017;-88
2023/04/10 18:24:10;;;;;;;1.65;1.55;;;;;;;10.86;77.08;100272.88;6098339;23;20024;-92
2023/04/10 18:26:36;;;;;;;1.73;1.63;;;;;;;10.72;77.34;100283.09;6123197;23;20018;-93
2023/04/10 18:29:02;;;;;;;1.70;1.60;;;;;;;10.61;78.27;100277.00;6148561;23;20041;-92
2023/04/10 18:31:28;;;;;;;4.80;2.40;;;;;;;10.50;79.49;100281.25;6122473;23;20560;-93